createdAt,value
2017-03-26T00:00:44.906Z,0
2017-03-26T00:01:56.145Z,0
2017-03-26T00:03:07.135Z,0
2017-03-26T00:04:18.133Z,0
2017-03-26T00:05:29.127Z,0
2017-03-26T00:06:40.121Z,0
2017-03-26T00:07:51.123Z,0
2017-03-26T00:09:02.111Z,0
2017-03-26T00:10:13.305Z,0
2017-03-26T00:11:24.297Z,0
2017-03-26T00:12:35.293Z,0
2017-03-26T00:13:46.290Z,0
2017-03-26T00:14:57.481Z,0
2017-03-26T00:16:08.473Z,0
2017-03-26T00:17:19.509Z,0
2017-03-26T00:18:30.560Z,0
2017-03-26T00:19:41.557Z,0
2017-03-26T00:20:52.546Z,0
2017-03-26T00:22:03.534Z,0
2017-03-26T00:23:14.526Z,0
2017-03-26T00:24:25.513Z,0
2017-03-26T00:25:36.506Z,0
2017-03-26T00:26:47.501Z,0
2017-03-26T00:27:58.490Z,0
2017-03-26T00:29:09.486Z,0
2017-03-26T00:30:20.482Z,0
2017-03-26T00:31:31.665Z,0
2017-03-26T00:32:42.871Z,0
2017-03-26T00:33:53.877Z,0
2017-03-26T00:35:04.871Z,0
2017-03-26T00:36:15.867Z,0
2017-03-26T00:37:26.880Z,0
2017-03-26T00:38:37.884Z,0
2017-03-26T00:39:48.871Z,0
2017-03-26T00:40:59.876Z,0
2017-03-26T00:42:10.875Z,0
2017-03-26T00:43:21.928Z,0
2017-03-26T00:44:32.924Z,0
2017-03-26T00:45:43.910Z,0
2017-03-26T00:46:54.898Z,0
2017-03-26T00:48:05.885Z,0
2017-03-26T00:49:16.894Z,0
2017-03-26T00:50:27.901Z,0
2017-03-26T00:51:39.089Z,0
2017-03-26T00:52:50.077Z,0
2017-03-26T00:54:01.533Z,0
2017-03-26T00:55:12.518Z,0
2017-03-26T00:56:23.510Z,0
2017-03-26T00:57:34.502Z,0
2017-03-26T00:58:45.694Z,0
2017-03-26T00:59:56.694Z,0
2017-03-26T01:01:07.740Z,0
2017-03-26T01:02:18.726Z,0
2017-03-26T01:03:29.723Z,0
2017-03-26T01:04:40.705Z,0
2017-03-26T01:05:51.696Z,0
2017-03-26T01:07:02.678Z,0
2017-03-26T01:08:13.672Z,0
2017-03-26T01:09:24.718Z,0
2017-03-26T01:10:35.708Z,0
2017-03-26T01:11:46.691Z,0
2017-03-26T01:12:57.881Z,0
2017-03-26T01:14:08.880Z,0
2017-03-26T01:15:19.875Z,0
2017-03-26T01:16:30.868Z,0
2017-03-26T01:17:41.867Z,0
2017-03-26T01:18:52.850Z,0
2017-03-26T01:20:03.898Z,0
2017-03-26T01:21:14.889Z,0
2017-03-26T01:22:26.293Z,0
2017-03-26T01:23:37.297Z,0
2017-03-26T01:24:48.696Z,0
2017-03-26T01:25:59.888Z,0
2017-03-26T01:27:11.076Z,0
2017-03-26T01:28:22.115Z,0
2017-03-26T01:29:33.513Z,0
2017-03-26T01:30:44.553Z,0
2017-03-26T01:31:55.950Z,0
2017-03-26T01:33:06.949Z,0
2017-03-26T01:34:18.142Z,0
2017-03-26T01:35:29.128Z,0
2017-03-26T01:36:40.117Z,0
2017-03-26T01:37:51.310Z,0
2017-03-26T01:39:02.500Z,0
2017-03-26T01:40:13.682Z,0
2017-03-26T01:41:24.917Z,0
2017-03-26T01:42:35.907Z,0
2017-03-26T01:43:46.904Z,0
2017-03-26T01:44:57.891Z,0
2017-03-26T01:46:08.884Z,0
2017-03-26T01:47:19.872Z,0
2017-03-26T01:48:30.858Z,0
2017-03-26T01:49:41.855Z,0
2017-03-26T01:50:53.052Z,0
2017-03-26T01:52:04.047Z,0
2017-03-26T01:53:15.044Z,0
2017-03-26T01:54:26.041Z,0
2017-03-26T01:55:37.033Z,0
2017-03-26T01:56:48.019Z,0
2017-03-26T01:57:59.268Z,0
2017-03-26T01:59:10.263Z,0
2017-03-26T02:00:21.244Z,0
2017-03-26T02:01:32.438Z,0
2017-03-26T02:02:43.421Z,0
2017-03-26T02:03:54.412Z,0
2017-03-26T02:05:05.607Z,0
2017-03-26T02:06:16.592Z,0
2017-03-26T02:07:27.586Z,0
2017-03-26T02:08:38.642Z,0
2017-03-26T02:09:49.634Z,0
2017-03-26T02:11:00.617Z,0
2017-03-26T02:12:11.613Z,0
2017-03-26T02:13:22.610Z,0
2017-03-26T02:14:33.597Z,0
2017-03-26T02:15:44.586Z,0
2017-03-26T02:16:55.776Z,0
2017-03-26T02:18:06.785Z,0
2017-03-26T02:19:18.028Z,0
2017-03-26T02:20:29.216Z,0
2017-03-26T02:21:40.196Z,0
2017-03-26T02:22:51.195Z,0
2017-03-26T02:24:02.193Z,0
2017-03-26T02:25:13.178Z,0
2017-03-26T02:26:24.171Z,0
2017-03-26T02:27:35.169Z,0
2017-03-26T02:28:46.164Z,0
2017-03-26T02:29:57.408Z,0
2017-03-26T02:31:08.398Z,0
2017-03-26T02:32:19.383Z,0
2017-03-26T02:33:30.372Z,0
2017-03-26T02:34:41.359Z,0
2017-03-26T02:35:52.342Z,0
2017-03-26T02:37:03.325Z,0
2017-03-26T02:38:14.526Z,0
2017-03-26T02:39:25.509Z,0
2017-03-26T02:40:36.546Z,0
2017-03-26T02:41:47.526Z,0
2017-03-26T02:42:58.777Z,0
2017-03-26T02:44:09.971Z,0
2017-03-26T02:45:20.959Z,0
2017-03-26T02:46:31.947Z,0
2017-03-26T02:47:42.949Z,0
2017-03-26T02:48:53.947Z,0
2017-03-26T02:50:04.969Z,0
2017-03-26T02:51:16.205Z,0
2017-03-26T02:52:27.388Z,0
2017-03-26T02:53:38.380Z,0
2017-03-26T02:54:49.369Z,0
2017-03-26T02:56:00.361Z,0
2017-03-26T02:57:11.348Z,0
2017-03-26T02:58:22.603Z,0
2017-03-26T02:59:33.804Z,0
2017-03-26T03:00:44.787Z,0
2017-03-26T03:01:56.031Z,0
2017-03-26T03:03:07.031Z,0
2017-03-26T03:04:18.026Z,0
2017-03-26T03:05:29.020Z,0
2017-03-26T03:06:40.204Z,0
2017-03-26T03:07:51.195Z,0
2017-03-26T03:09:02.194Z,0
2017-03-26T03:10:13.182Z,0
2017-03-26T03:11:24.419Z,0
2017-03-26T03:12:35.460Z,0
2017-03-26T03:13:46.457Z,0
2017-03-26T03:14:57.446Z,0
2017-03-26T03:16:08.435Z,0
2017-03-26T03:17:19.421Z,0
2017-03-26T03:18:30.417Z,0
2017-03-26T03:19:41.414Z,0
2017-03-26T03:20:52.401Z,0
2017-03-26T03:22:03.390Z,0
2017-03-26T03:23:14.585Z,0
2017-03-26T03:24:25.815Z,0
2017-03-26T03:25:36.804Z,0
2017-03-26T03:26:48.033Z,0
2017-03-26T03:27:59.274Z,0
2017-03-26T03:29:10.457Z,0
2017-03-26T03:30:21.644Z,0
2017-03-26T03:31:32.630Z,0
2017-03-26T03:32:43.617Z,0
2017-03-26T03:33:54.613Z,0
2017-03-26T03:35:05.599Z,0
2017-03-26T03:36:16.589Z,0
2017-03-26T03:37:27.581Z,0
2017-03-26T03:38:38.621Z,0
2017-03-26T03:39:49.825Z,0
2017-03-26T03:41:00.826Z,0
2017-03-26T03:42:11.812Z,0
2017-03-26T03:43:22.810Z,0
2017-03-26T03:44:33.797Z,0
2017-03-26T03:45:44.784Z,0
2017-03-26T03:46:55.980Z,0
2017-03-26T03:48:06.978Z,0
2017-03-26T03:49:18.031Z,0
2017-03-26T03:50:29.011Z,0
2017-03-26T03:51:39.992Z,0
2017-03-26T03:52:50.986Z,0
2017-03-26T03:54:02.192Z,0
2017-03-26T03:55:13.179Z,0
2017-03-26T03:56:24.169Z,0
2017-03-26T03:57:35.155Z,0
2017-03-26T03:58:46.148Z,0
2017-03-26T03:59:57.601Z,0
2017-03-26T04:01:08.589Z,0
2017-03-26T04:02:19.772Z,0
2017-03-26T04:03:30.763Z,0
2017-03-26T04:04:41.764Z,0
2017-03-26T04:05:52.754Z,0
2017-03-26T04:07:03.740Z,0
2017-03-26T04:08:14.777Z,0
2017-03-26T04:09:25.773Z,0
2017-03-26T04:10:36.765Z,0
2017-03-26T04:11:47.746Z,0
2017-03-26T04:12:58.737Z,0
2017-03-26T04:14:09.931Z,0
2017-03-26T04:15:20.972Z,0
2017-03-26T04:16:31.963Z,0
2017-03-26T04:17:42.957Z,0
2017-03-26T04:18:53.963Z,0
2017-03-26T04:20:04.996Z,0
2017-03-26T04:21:16.182Z,0
2017-03-26T04:22:27.171Z,0
2017-03-26T04:23:38.160Z,0
2017-03-26T04:24:49.348Z,0
2017-03-26T04:26:00.388Z,0
2017-03-26T04:27:11.638Z,0
2017-03-26T04:28:22.635Z,0
2017-03-26T04:29:34.020Z,0
2017-03-26T04:30:45.009Z,0
2017-03-26T04:31:56.230Z,0
2017-03-26T04:33:07.229Z,0
2017-03-26T04:34:18.214Z,0
2017-03-26T04:35:29.205Z,0
2017-03-26T04:36:40.450Z,0
2017-03-26T04:37:51.857Z,0
2017-03-26T04:39:02.845Z,0
2017-03-26T04:40:13.834Z,0
2017-03-26T04:41:24.836Z,0
2017-03-26T04:42:35.829Z,0
2017-03-26T04:43:46.824Z,0
2017-03-26T04:44:57.817Z,0
2017-03-26T04:46:08.859Z,0
2017-03-26T04:47:20.105Z,0
2017-03-26T04:48:31.110Z,0
2017-03-26T04:49:42.153Z,0
2017-03-26T04:50:53.142Z,0
2017-03-26T04:52:04.119Z,0
2017-03-26T04:53:15.322Z,0
2017-03-26T04:54:26.511Z,0
2017-03-26T04:55:37.497Z,0
2017-03-26T04:56:48.482Z,0
2017-03-26T04:57:59.673Z,0
2017-03-26T04:59:10.866Z,0
2017-03-26T05:00:21.869Z,0
2017-03-26T05:01:32.853Z,0
2017-03-26T05:02:43.851Z,0
2017-03-26T05:03:55.248Z,0
2017-03-26T05:05:06.226Z,0
2017-03-26T05:06:17.214Z,0
2017-03-26T05:07:28.199Z,0
2017-03-26T05:08:39.458Z,0
2017-03-26T05:09:50.454Z,0
2017-03-26T05:11:01.476Z,0
2017-03-26T05:12:12.477Z,0
2017-03-26T05:13:23.667Z,0
2017-03-26T05:14:34.658Z,0
2017-03-26T05:15:45.644Z,0
2017-03-26T05:16:56.833Z,0
2017-03-26T05:18:07.838Z,0
2017-03-26T05:19:18.881Z,0
2017-03-26T05:20:29.885Z,5
2017-03-26T05:21:40.878Z,5
2017-03-26T05:22:52.072Z,5
2017-03-26T05:24:03.080Z,5
2017-03-26T05:25:14.065Z,5
2017-03-26T05:26:25.058Z,5
2017-03-26T05:27:36.052Z,10
2017-03-26T05:28:47.102Z,10
2017-03-26T05:29:58.356Z,10
2017-03-26T05:31:09.576Z,15
2017-03-26T05:32:20.556Z,15
2017-03-26T05:33:31.751Z,15
2017-03-26T05:34:42.744Z,15
2017-03-26T05:35:53.729Z,20
2017-03-26T05:37:04.717Z,20
2017-03-26T05:38:15.908Z,20
2017-03-26T05:39:26.904Z,20
2017-03-26T05:40:37.882Z,20
2017-03-26T05:41:48.869Z,20
2017-03-26T05:42:59.855Z,25
2017-03-26T05:44:10.897Z,25
2017-03-26T05:45:22.136Z,25
2017-03-26T05:46:33.119Z,30
2017-03-26T05:47:44.314Z,30
2017-03-26T05:48:55.309Z,35
2017-03-26T05:50:06.318Z,35
2017-03-26T05:51:17.310Z,35
2017-03-26T05:52:28.502Z,35
2017-03-26T05:53:39.489Z,40
2017-03-26T05:54:50.474Z,40
2017-03-26T05:56:01.515Z,45
2017-03-26T05:57:12.506Z,45
2017-03-26T05:58:23.513Z,50
2017-03-26T05:59:34.502Z,55
2017-03-26T06:00:45.489Z,60
2017-03-26T06:01:56.677Z,60
2017-03-26T06:03:07.670Z,65
2017-03-26T06:04:18.868Z,70
2017-03-26T06:05:29.847Z,80
2017-03-26T06:06:40.832Z,80
2017-03-26T06:07:52.029Z,85
2017-03-26T06:09:03.025Z,95
2017-03-26T06:10:14.014Z,105
2017-03-26T06:11:25.463Z,110
2017-03-26T06:12:36.452Z,125
2017-03-26T06:13:47.441Z,135
2017-03-26T06:14:58.634Z,150
2017-03-26T06:16:09.631Z,165
2017-03-26T06:17:20.617Z,200
2017-03-26T06:18:31.619Z,260
2017-03-26T06:19:42.618Z,290
2017-03-26T06:20:53.613Z,290
2017-03-26T06:22:04.613Z,290
2017-03-26T06:23:15.607Z,280
2017-03-26T06:24:26.597Z,290
2017-03-26T06:25:37.783Z,295
2017-03-26T06:26:48.780Z,285
2017-03-26T06:28:00.194Z,290
2017-03-26T06:29:11.200Z,310
2017-03-26T06:30:22.185Z,335
2017-03-26T06:31:33.384Z,365
2017-03-26T06:32:44.378Z,405
2017-03-26T06:33:55.578Z,430
2017-03-26T06:35:06.573Z,465
2017-03-26T06:36:17.568Z,545
2017-03-26T06:37:28.562Z,520
2017-03-26T06:38:39.554Z,485
2017-03-26T06:39:50.558Z,515
2017-03-26T06:41:01.551Z,605
2017-03-26T06:42:12.794Z,635
2017-03-26T06:43:23.782Z,620
2017-03-26T06:44:34.785Z,560
2017-03-26T06:45:45.776Z,515
2017-03-26T06:46:56.963Z,570
2017-03-26T06:48:07.960Z,730
2017-03-26T06:49:18.950Z,790
2017-03-26T06:50:29.942Z,915
2017-03-26T06:51:40.928Z,1110
2017-03-26T06:52:51.978Z,1060
2017-03-26T06:54:02.982Z,995
2017-03-26T06:55:14.174Z,1225
2017-03-26T06:56:25.373Z,1080
2017-03-26T06:57:36.374Z,1205
2017-03-26T06:58:47.375Z,1280
2017-03-26T06:59:58.368Z,1310
2017-03-26T07:01:09.357Z,1355
2017-03-26T07:02:20.354Z,1320
2017-03-26T07:03:31.365Z,1345
2017-03-26T07:04:42.367Z,1315
2017-03-26T07:05:53.368Z,1110
2017-03-26T07:07:04.383Z,975
2017-03-26T07:08:15.387Z,1160
2017-03-26T07:09:26.392Z,1255
2017-03-26T07:10:37.403Z,1175
2017-03-26T07:11:48.401Z,1175
2017-03-26T07:12:59.422Z,1210
2017-03-26T07:14:10.626Z,1040
2017-03-26T07:15:21.621Z,1325
2017-03-26T07:16:32.674Z,1325
2017-03-26T07:17:43.676Z,1285
2017-03-26T07:18:54.679Z,1385
2017-03-26T07:20:05.880Z,1390
2017-03-26T07:21:16.884Z,1400
2017-03-26T07:22:27.880Z,1365
2017-03-26T07:23:39.338Z,1340
2017-03-26T07:24:50.737Z,1250
2017-03-26T07:26:01.737Z,1190
2017-03-26T07:27:12.739Z,1165
2017-03-26T07:28:23.739Z,1130
2017-03-26T07:29:34.937Z,1240
2017-03-26T07:30:45.938Z,1220
2017-03-26T07:31:56.940Z,1570
2017-03-26T07:33:07.939Z,1535
2017-03-26T07:34:18.948Z,1425
2017-03-26T07:35:29.970Z,1540
2017-03-26T07:36:41.173Z,1500
2017-03-26T07:37:52.179Z,1480
2017-03-26T07:39:03.230Z,1275
2017-03-26T07:40:14.272Z,1415
2017-03-26T07:41:25.261Z,1375
2017-03-26T07:42:36.260Z,1285
2017-03-26T07:43:47.273Z,1350
2017-03-26T07:44:58.282Z,1715
2017-03-26T07:46:09.287Z,1905
2017-03-26T07:47:20.296Z,1875
2017-03-26T07:48:31.317Z,1780
2017-03-26T07:49:42.374Z,1730
2017-03-26T07:50:53.387Z,1480
2017-03-26T07:52:04.380Z,1655
2017-03-26T07:53:15.594Z,1705
2017-03-26T07:54:26.608Z,1715
2017-03-26T07:55:37.613Z,1670
2017-03-26T07:56:48.821Z,1800
2017-03-26T07:57:59.830Z,1895
2017-03-26T07:59:11.052Z,1980
2017-03-26T08:00:22.063Z,2005
2017-03-26T08:01:33.056Z,1905
2017-03-26T08:02:44.267Z,2065
2017-03-26T08:03:55.486Z,2005
2017-03-26T08:05:06.695Z,2065
2017-03-26T08:06:17.898Z,2095
2017-03-26T08:07:28.907Z,2055
2017-03-26T08:08:39.914Z,2075
2017-03-26T08:09:50.968Z,1850
2017-03-26T08:11:02.191Z,2095
2017-03-26T08:12:13.400Z,2170
2017-03-26T08:13:24.421Z,2170
2017-03-26T08:14:35.426Z,2100
2017-03-26T08:15:46.431Z,2265
2017-03-26T08:16:57.423Z,2160
2017-03-26T08:18:08.454Z,2090
2017-03-26T08:19:19.463Z,2025
2017-03-26T08:20:30.667Z,2220
2017-03-26T08:21:41.665Z,2090
2017-03-26T08:22:52.671Z,2030
2017-03-26T08:24:03.686Z,2160
2017-03-26T08:25:14.691Z,1920
2017-03-26T08:26:25.692Z,1565
2017-03-26T08:27:36.742Z,1220
2017-03-26T08:28:47.956Z,1225
2017-03-26T08:29:59.209Z,1425
2017-03-26T08:31:10.207Z,1590
2017-03-26T08:32:21.207Z,1685
2017-03-26T08:33:32.215Z,1730
2017-03-26T08:34:43.266Z,2205
2017-03-26T08:35:54.274Z,2250
2017-03-26T08:37:05.271Z,2135
2017-03-26T08:38:16.475Z,2215
2017-03-26T08:39:27.702Z,2195
2017-03-26T08:40:38.961Z,2375
2017-03-26T08:41:50.171Z,2375
2017-03-26T08:43:01.189Z,2450
2017-03-26T08:44:12.199Z,2275
2017-03-26T08:45:23.206Z,2045
2017-03-26T08:46:34.219Z,1985
2017-03-26T08:47:45.225Z,1870
2017-03-26T08:48:56.223Z,1865
2017-03-26T08:50:07.438Z,1980
2017-03-26T08:51:18.447Z,1870
2017-03-26T08:52:29.667Z,1825
2017-03-26T08:53:40.874Z,2275
2017-03-26T08:54:51.892Z,2260
2017-03-26T08:56:02.942Z,2125
2017-03-26T08:57:13.967Z,1700
2017-03-26T08:58:24.988Z,1510
2017-03-26T08:59:36.034Z,1325
2017-03-26T09:00:47.091Z,1510
2017-03-26T09:01:58.094Z,2045
2017-03-26T09:03:09.124Z,1665
2017-03-26T09:04:20.135Z,1435
2017-03-26T09:05:31.137Z,1685
2017-03-26T09:06:42.151Z,1615
2017-03-26T09:07:53.364Z,1905
2017-03-26T09:09:04.365Z,2555
2017-03-26T09:10:15.371Z,2130
2017-03-26T09:11:26.376Z,2665
2017-03-26T09:12:37.384Z,2265
2017-03-26T09:13:48.423Z,2180
2017-03-26T09:14:59.437Z,1675
2017-03-26T09:16:10.446Z,2005
2017-03-26T09:17:21.449Z,1795
2017-03-26T09:18:32.459Z,2155
2017-03-26T09:19:43.876Z,1920
2017-03-26T09:20:55.092Z,1845
2017-03-26T09:22:06.340Z,1905
2017-03-26T09:23:17.366Z,2130
2017-03-26T09:24:28.589Z,2225
2017-03-26T09:25:39.812Z,1875
2017-03-26T09:26:50.817Z,1825
2017-03-26T09:28:01.836Z,1490
2017-03-26T09:29:12.865Z,1340
2017-03-26T09:30:23.877Z,1780
2017-03-26T09:31:34.887Z,2145
2017-03-26T09:32:46.114Z,1800
2017-03-26T09:33:57.133Z,1440
2017-03-26T09:35:08.156Z,2000
2017-03-26T09:36:19.165Z,1905
2017-03-26T09:37:30.224Z,2415
2017-03-26T09:38:41.675Z,2555
2017-03-26T09:39:52.686Z,1735
2017-03-26T09:41:03.707Z,2245
2017-03-26T09:42:14.716Z,1735
2017-03-26T09:43:25.807Z,1790
2017-03-26T09:44:36.822Z,1170
2017-03-26T09:45:47.822Z,1115
2017-03-26T09:46:59.038Z,2550
2017-03-26T09:48:10.250Z,2815
2017-03-26T09:49:21.258Z,2750
2017-03-26T09:50:32.261Z,2290
2017-03-26T09:51:43.667Z,2655
2017-03-26T09:52:54.935Z,2480
2017-03-26T09:54:05.952Z,2770
2017-03-26T09:55:16.957Z,2485
2017-03-26T09:56:27.976Z,2550
2017-03-26T09:57:38.990Z,2695
2017-03-26T09:58:50.009Z,2745
2017-03-26T10:00:01.035Z,2680
2017-03-26T10:01:12.041Z,2520
2017-03-26T10:02:23.038Z,2680
2017-03-26T10:03:34.045Z,2530
2017-03-26T10:04:45.257Z,2230
2017-03-26T10:05:56.274Z,2510
2017-03-26T10:07:07.290Z,2490
2017-03-26T10:08:18.357Z,2450
2017-03-26T10:09:29.369Z,2310
2017-03-26T10:10:40.376Z,2250
2017-03-26T10:11:51.388Z,2665
2017-03-26T10:13:02.403Z,2595
2017-03-26T10:14:13.423Z,2605
2017-03-26T10:15:24.434Z,2555
2017-03-26T10:16:35.452Z,2030
2017-03-26T10:17:46.522Z,2455
2017-03-26T10:18:57.540Z,2485
2017-03-26T10:20:08.555Z,2635
2017-03-26T10:21:19.562Z,2710
2017-03-26T10:22:30.568Z,2540
2017-03-26T10:23:41.840Z,2520
2017-03-26T10:24:52.862Z,2560
2017-03-26T10:26:03.869Z,2480
2017-03-26T10:27:14.890Z,2535
2017-03-26T10:28:25.900Z,2470
2017-03-26T10:29:36.911Z,2480
2017-03-26T10:30:47.923Z,2620
2017-03-26T10:31:58.955Z,2610
2017-03-26T10:33:09.976Z,2635
2017-03-26T10:34:20.991Z,2540
2017-03-26T10:35:32.236Z,2150
2017-03-26T10:36:43.256Z,2325
2017-03-26T10:37:54.276Z,2345
2017-03-26T10:39:05.539Z,2025
2017-03-26T10:40:16.764Z,2135
2017-03-26T10:41:27.784Z,2410
2017-03-26T10:42:38.794Z,1960
2017-03-26T10:43:49.816Z,2270
2017-03-26T10:45:00.839Z,2230
2017-03-26T10:46:12.051Z,2465
2017-03-26T10:47:23.263Z,2430
2017-03-26T10:48:34.550Z,2395
2017-03-26T10:49:45.617Z,2030
2017-03-26T10:50:56.629Z,2260
2017-03-26T10:52:07.683Z,2215
2017-03-26T10:53:18.696Z,2385
2017-03-26T10:54:29.711Z,1820
2017-03-26T10:55:40.721Z,1850
2017-03-26T10:56:51.733Z,2290
2017-03-26T10:58:02.747Z,2270
2017-03-26T10:59:13.759Z,2240
2017-03-26T11:00:24.776Z,2200
2017-03-26T11:01:35.791Z,2225
2017-03-26T11:02:46.811Z,2295
2017-03-26T11:03:58.021Z,2265
2017-03-26T11:05:09.304Z,2105
2017-03-26T11:06:20.327Z,2170
2017-03-26T11:07:31.340Z,2160
2017-03-26T11:08:42.614Z,2145
2017-03-26T11:09:53.624Z,2165
2017-03-26T11:11:04.636Z,2105
2017-03-26T11:12:15.653Z,2150
2017-03-26T11:13:26.695Z,2075
2017-03-26T11:14:37.707Z,2020
2017-03-26T11:15:49.017Z,2095
2017-03-26T11:17:00.031Z,1995
2017-03-26T11:18:11.066Z,2000
2017-03-26T11:19:22.118Z,2000
2017-03-26T11:20:33.132Z,2025
2017-03-26T11:21:44.144Z,2040
2017-03-26T11:22:55.167Z,2025
2017-03-26T11:24:06.397Z,1940
2017-03-26T11:25:17.410Z,1915
2017-03-26T11:26:28.668Z,1950
2017-03-26T11:27:39.686Z,1895
2017-03-26T11:28:50.705Z,1835
2017-03-26T11:30:01.724Z,1790
2017-03-26T11:31:12.736Z,1810
2017-03-26T11:32:23.752Z,1760
2017-03-26T11:33:34.763Z,1715
2017-03-26T11:34:45.770Z,1730
2017-03-26T11:35:56.782Z,1685
2017-03-26T11:37:08.047Z,1660
2017-03-26T11:38:19.060Z,1680
2017-03-26T11:39:30.275Z,1535
2017-03-26T11:40:41.487Z,1605
2017-03-26T11:41:52.688Z,1615
2017-03-26T11:43:03.699Z,1465
2017-03-26T11:44:14.718Z,1435
2017-03-26T11:45:25.729Z,1415
2017-03-26T11:46:36.947Z,1520
2017-03-26T11:47:47.957Z,1575
2017-03-26T11:48:58.974Z,1575
2017-03-26T11:50:09.984Z,1550
2017-03-26T11:51:21.194Z,1510
2017-03-26T11:52:32.260Z,1545
2017-03-26T11:53:43.269Z,1775
2017-03-26T11:54:54.296Z,1640
2017-03-26T11:56:05.500Z,1410
2017-03-26T11:57:16.516Z,1330
2017-03-26T11:58:27.731Z,1395
2017-03-26T11:59:38.951Z,1325
2017-03-26T12:00:49.954Z,1300
2017-03-26T12:02:00.966Z,1410
2017-03-26T12:03:12.022Z,1380
2017-03-26T12:04:23.029Z,1350
2017-03-26T12:05:34.031Z,1315
2017-03-26T12:06:45.041Z,1075
2017-03-26T12:07:56.254Z,955
2017-03-26T12:09:07.261Z,950
2017-03-26T12:10:18.257Z,955
2017-03-26T12:11:29.268Z,965
2017-03-26T12:12:40.285Z,1005
2017-03-26T12:13:51.357Z,1065
2017-03-26T12:15:02.371Z,1095
2017-03-26T12:16:13.378Z,1135
2017-03-26T12:17:24.383Z,1230
2017-03-26T12:18:35.391Z,1250
2017-03-26T12:19:46.398Z,1285
2017-03-26T12:20:57.601Z,1270
2017-03-26T12:22:08.613Z,1285
2017-03-26T12:23:19.635Z,1225
2017-03-26T12:24:30.902Z,1070
2017-03-26T12:25:41.908Z,1135
2017-03-26T12:26:52.920Z,810
2017-03-26T12:28:04.140Z,1120
2017-03-26T12:29:15.142Z,1080
2017-03-26T12:30:26.150Z,1050
2017-03-26T12:31:37.156Z,1040
2017-03-26T12:32:48.159Z,1045
2017-03-26T12:33:59.176Z,1025
2017-03-26T12:35:10.633Z,985
2017-03-26T12:36:21.629Z,935
2017-03-26T12:37:32.643Z,835
2017-03-26T12:38:43.665Z,740
2017-03-26T12:39:54.671Z,740
2017-03-26T12:41:05.919Z,755
2017-03-26T12:42:16.925Z,715
2017-03-26T12:43:27.957Z,665
2017-03-26T12:44:39.178Z,725
2017-03-26T12:45:50.229Z,670
2017-03-26T12:47:01.430Z,655
2017-03-26T12:48:12.443Z,575
2017-03-26T12:49:23.664Z,515
2017-03-26T12:50:34.739Z,590
2017-03-26T12:51:45.745Z,705
2017-03-26T12:52:56.753Z,610
2017-03-26T12:54:07.759Z,615
2017-03-26T12:55:18.963Z,650
2017-03-26T12:56:30.406Z,635
2017-03-26T12:57:41.409Z,620
2017-03-26T12:58:52.422Z,655
2017-03-26T13:00:03.429Z,595
2017-03-26T13:01:14.435Z,590
2017-03-26T13:02:25.440Z,595
2017-03-26T13:03:36.442Z,615
2017-03-26T13:04:47.452Z,640
2017-03-26T13:05:58.459Z,635
2017-03-26T13:07:09.707Z,595
2017-03-26T13:08:20.912Z,505
2017-03-26T13:09:31.920Z,550
2017-03-26T13:10:43.125Z,605
2017-03-26T13:11:54.129Z,565
2017-03-26T13:13:05.133Z,515
2017-03-26T13:14:16.147Z,510
2017-03-26T13:15:27.139Z,515
2017-03-26T13:16:38.154Z,500
2017-03-26T13:17:49.164Z,435
2017-03-26T13:19:00.384Z,430
2017-03-26T13:20:11.396Z,405
2017-03-26T13:21:22.398Z,405
2017-03-26T13:22:33.403Z,435
2017-03-26T13:23:44.660Z,435
2017-03-26T13:24:55.658Z,365
2017-03-26T13:26:06.872Z,380
2017-03-26T13:27:17.938Z,405
2017-03-26T13:28:28.935Z,410
2017-03-26T13:29:39.944Z,440
2017-03-26T13:30:50.955Z,500
2017-03-26T13:32:01.961Z,460
2017-03-26T13:33:13.163Z,390
2017-03-26T13:34:24.437Z,380
2017-03-26T13:35:35.637Z,375
2017-03-26T13:36:46.842Z,385
2017-03-26T13:37:57.851Z,375
2017-03-26T13:39:08.873Z,375
2017-03-26T13:40:19.875Z,375
2017-03-26T13:41:30.872Z,375
2017-03-26T13:42:41.883Z,380
2017-03-26T13:43:52.939Z,365
2017-03-26T13:45:04.197Z,355
2017-03-26T13:46:15.401Z,360
2017-03-26T13:47:26.404Z,355
2017-03-26T13:48:37.422Z,350
2017-03-26T13:49:48.420Z,340
2017-03-26T13:50:59.813Z,350
2017-03-26T13:52:11.019Z,370
2017-03-26T13:53:22.022Z,375
2017-03-26T13:54:33.025Z,365
2017-03-26T13:55:44.270Z,370
2017-03-26T13:56:55.268Z,375
2017-03-26T13:58:06.282Z,365
2017-03-26T13:59:17.286Z,385
2017-03-26T14:00:28.279Z,380
2017-03-26T14:01:39.483Z,390
2017-03-26T14:02:50.890Z,390
2017-03-26T14:04:01.911Z,390
2017-03-26T14:05:13.114Z,355
2017-03-26T14:06:24.358Z,380
2017-03-26T14:07:35.357Z,385
2017-03-26T14:08:46.372Z,395
2017-03-26T14:09:57.378Z,400
2017-03-26T14:11:08.382Z,395
2017-03-26T14:12:19.388Z,385
2017-03-26T14:13:30.397Z,385
2017-03-26T14:14:41.394Z,385
2017-03-26T14:15:52.394Z,360
2017-03-26T14:17:03.667Z,385
2017-03-26T14:18:14.667Z,390
2017-03-26T14:19:25.677Z,365
2017-03-26T14:20:36.668Z,340
2017-03-26T14:21:47.710Z,330
2017-03-26T14:22:58.717Z,325
2017-03-26T14:24:09.729Z,320
2017-03-26T14:25:20.742Z,315
2017-03-26T14:26:31.739Z,310
2017-03-26T14:27:42.987Z,315
2017-03-26T14:28:53.997Z,295
2017-03-26T14:30:05.000Z,295
2017-03-26T14:31:15.995Z,285
2017-03-26T14:32:27.195Z,280
2017-03-26T14:33:38.195Z,275
2017-03-26T14:34:49.199Z,275
2017-03-26T14:36:00.193Z,270
2017-03-26T14:37:11.188Z,265
2017-03-26T14:38:22.448Z,265
2017-03-26T14:39:33.455Z,265
2017-03-26T14:40:44.457Z,265
2017-03-26T14:41:55.653Z,260
2017-03-26T14:43:06.668Z,260
2017-03-26T14:44:17.667Z,260
2017-03-26T14:45:28.666Z,260
2017-03-26T14:46:39.662Z,260
2017-03-26T14:47:50.666Z,255
2017-03-26T14:49:01.925Z,260
2017-03-26T14:50:13.333Z,260
2017-03-26T14:51:24.532Z,255
2017-03-26T14:52:35.566Z,255
2017-03-26T14:53:46.586Z,255
2017-03-26T14:54:57.637Z,250
2017-03-26T14:56:08.659Z,250
2017-03-26T14:57:19.664Z,250
2017-03-26T14:58:30.662Z,245
2017-03-26T14:59:41.912Z,245
2017-03-26T15:00:52.909Z,245
2017-03-26T15:02:03.895Z,245
2017-03-26T15:03:14.894Z,240
2017-03-26T15:04:25.899Z,240
2017-03-26T15:05:36.931Z,235
2017-03-26T15:06:47.922Z,235
2017-03-26T15:07:58.924Z,235
2017-03-26T15:09:09.926Z,235
2017-03-26T15:10:21.170Z,235
2017-03-26T15:11:32.164Z,235
2017-03-26T15:12:43.169Z,235
2017-03-26T15:13:54.179Z,235
2017-03-26T15:15:05.216Z,235
2017-03-26T15:16:16.215Z,235
2017-03-26T15:17:27.266Z,235
2017-03-26T15:18:38.478Z,230
2017-03-26T15:19:49.479Z,230
2017-03-26T15:21:00.531Z,225
2017-03-26T15:22:11.539Z,225
2017-03-26T15:23:22.549Z,225
2017-03-26T15:24:33.548Z,225
2017-03-26T15:25:44.547Z,225
2017-03-26T15:26:55.542Z,220
2017-03-26T15:28:06.547Z,220
2017-03-26T15:29:17.597Z,220
2017-03-26T15:30:28.615Z,220
2017-03-26T15:31:39.868Z,220
2017-03-26T15:32:50.910Z,215
2017-03-26T15:34:01.920Z,215
2017-03-26T15:35:12.920Z,215
2017-03-26T15:36:24.112Z,215
2017-03-26T15:37:35.113Z,210
2017-03-26T15:38:46.314Z,210
2017-03-26T15:39:57.314Z,210
2017-03-26T15:41:08.506Z,205
2017-03-26T15:42:19.757Z,205
2017-03-26T15:43:30.760Z,205
2017-03-26T15:44:41.957Z,205
2017-03-26T15:45:52.953Z,200
2017-03-26T15:47:03.952Z,200
2017-03-26T15:48:14.956Z,200
2017-03-26T15:49:26.016Z,205
2017-03-26T15:50:37.022Z,200
2017-03-26T15:51:48.020Z,200
2017-03-26T15:52:59.469Z,200
2017-03-26T15:54:10.465Z,195
2017-03-26T15:55:21.459Z,195
2017-03-26T15:56:32.456Z,195
2017-03-26T15:57:43.462Z,195
2017-03-26T15:58:54.670Z,195
2017-03-26T16:00:05.674Z,195
2017-03-26T16:01:16.674Z,190
2017-03-26T16:02:27.667Z,190
2017-03-26T16:03:38.883Z,185
2017-03-26T16:04:49.891Z,185
2017-03-26T16:06:01.089Z,185
2017-03-26T16:07:12.085Z,185
2017-03-26T16:08:23.090Z,180
2017-03-26T16:09:34.295Z,180
2017-03-26T16:10:45.293Z,180
2017-03-26T16:11:56.288Z,175
2017-03-26T16:13:07.291Z,175
2017-03-26T16:14:18.689Z,175
2017-03-26T16:15:29.683Z,175
2017-03-26T16:16:40.673Z,170
2017-03-26T16:17:51.683Z,170
2017-03-26T16:19:02.885Z,170
2017-03-26T16:20:13.886Z,165
2017-03-26T16:21:24.885Z,165
2017-03-26T16:22:35.877Z,165
2017-03-26T16:23:47.281Z,160
2017-03-26T16:24:58.284Z,160
2017-03-26T16:26:09.481Z,160
2017-03-26T16:27:20.483Z,160
2017-03-26T16:28:31.485Z,155
2017-03-26T16:29:42.487Z,155
2017-03-26T16:30:53.686Z,155